createdAt,value
2023-08-07T00:00:31.572Z,90.11
2023-08-07T00:01:03.245Z,89.85
2023-08-07T00:01:34.966Z,90.10
2023-08-07T00:02:08.106Z,89.62
2023-08-07T00:02:40.146Z,89.89
2023-08-07T00:03:12.711Z,90.57
2023-08-07T00:03:44.473Z,90.61
2023-08-07T00:04:16.143Z,90.43
2023-08-07T00:04:47.864Z,90.40
2023-08-07T00:05:19.508Z,90.42
2023-08-07T00:05:52.968Z,90.14
2023-08-07T00:06:24.612Z,90.70
2023-08-07T00:06:56.341Z,90.25
2023-08-07T00:07:28.028Z,90.39
2023-08-07T00:07:59.668Z,90.01
2023-08-07T00:08:32.520Z,90.43
2023-08-07T00:09:04.204Z,90.08
2023-08-07T00:09:35.872Z,89.63
2023-08-07T00:10:08.163Z,89.92
2023-08-07T00:10:40.133Z,90.15
2023-08-07T00:11:12.067Z,90.16
2023-08-07T00:11:43.744Z,90.22
2023-08-07T00:12:15.398Z,90.08
2023-08-07T00:12:47.205Z,89.75
2023-08-07T00:13:18.844Z,90.33
2023-08-07T00:13:50.496Z,90.10
2023-08-07T00:14:22.151Z,90.09
2023-08-07T00:14:54.327Z,90.31
2023-08-07T00:15:25.997Z,90.17
2023-08-07T00:15:57.773Z,90.24
2023-08-07T00:16:29.440Z,90.10
2023-08-07T00:17:01.141Z,89.93
2023-08-07T00:17:32.860Z,90.07
2023-08-07T00:18:04.573Z,90.13
2023-08-07T00:18:36.240Z,89.82
2023-08-07T00:19:08.006Z,89.45
2023-08-07T00:19:39.813Z,90.25
2023-08-07T00:20:11.536Z,90.32
2023-08-07T00:20:43.532Z,89.97
2023-08-07T00:21:15.168Z,90.58
2023-08-07T00:21:46.812Z,90.35
2023-08-07T00:22:18.543Z,90.35
2023-08-07T00:22:50.198Z,90.23
2023-08-07T00:23:21.823Z,90.55
2023-08-07T00:23:53.573Z,90.53
2023-08-07T00:24:25.248Z,90.36
2023-08-07T00:24:56.931Z,90.09
2023-08-07T00:25:28.691Z,89.94
2023-08-07T00:26:00.370Z,90.43
2023-08-07T00:26:33.371Z,90.68
2023-08-07T00:27:05.358Z,90.91
2023-08-07T00:27:37.160Z,90.31
2023-08-07T00:28:08.778Z,90.93
2023-08-07T00:28:40.444Z,90.68
2023-08-07T00:29:12.116Z,90.48
2023-08-07T00:29:43.793Z,90.55
2023-08-07T00:30:15.438Z,90.67
2023-08-07T00:30:47.310Z,91.15
2023-08-07T00:31:19.083Z,90.39
2023-08-07T00:31:50.735Z,90.47
2023-08-07T00:32:22.482Z,90.31
2023-08-07T00:32:54.165Z,90.95
2023-08-07T00:33:26.017Z,90.39
2023-08-07T00:33:58.681Z,90.58
2023-08-07T00:34:30.717Z,90.66
2023-08-07T00:35:02.439Z,90.51
2023-08-07T00:35:34.092Z,89.98
2023-08-07T00:36:05.884Z,90.40
2023-08-07T00:36:37.538Z,90.30
2023-08-07T00:37:09.164Z,89.71
2023-08-07T00:37:40.789Z,89.97
2023-08-07T00:38:12.582Z,90.83
2023-08-07T00:38:44.225Z,90.73
2023-08-07T00:39:15.882Z,90.52
2023-08-07T00:39:47.482Z,89.87
2023-08-07T00:40:19.599Z,89.92
2023-08-07T00:40:51.203Z,89.91
2023-08-07T00:41:22.858Z,90.25
2023-08-07T00:41:55.192Z,90.20
2023-08-07T00:42:26.808Z,89.58
2023-08-07T00:42:58.444Z,90.22
2023-08-07T00:43:30.110Z,90.41
2023-08-07T00:44:02.069Z,90.69
2023-08-07T00:44:33.745Z,90.13
2023-08-07T00:45:06.228Z,90.19
2023-08-07T00:45:42.952Z,89.91
2023-08-07T00:46:15.719Z,90.63
2023-08-07T00:46:48.149Z,90.15
2023-08-07T00:47:19.874Z,90.29
2023-08-07T00:47:51.573Z,89.92
2023-08-07T00:48:23.418Z,90.13
2023-08-07T00:48:55.341Z,90.23
2023-08-07T00:49:27.772Z,89.43
2023-08-07T00:50:00.279Z,89.74
2023-08-07T00:50:46.024Z,89.78
2023-08-07T00:51:18.677Z,89.64
2023-08-07T00:51:50.510Z,89.43
2023-08-07T00:52:22.175Z,89.54
2023-08-07T00:52:54.071Z,89.49
2023-08-07T00:53:26.226Z,89.52
2023-08-07T00:53:57.959Z,89.60
2023-08-07T00:54:30.849Z,89.76
2023-08-07T00:55:02.846Z,89.78
2023-08-07T00:55:34.589Z,89.57
2023-08-07T00:56:06.516Z,90.30
2023-08-07T00:56:38.305Z,89.97
2023-08-07T00:57:16.216Z,89.78
2023-08-07T00:57:47.934Z,89.33
2023-08-07T00:58:19.718Z,89.23
2023-08-07T00:58:51.829Z,89.37
2023-08-07T00:59:23.540Z,89.43
2023-08-07T00:59:55.301Z,89.74
2023-08-07T01:00:29.951Z,89.61
2023-08-07T01:01:02.254Z,89.63
2023-08-07T01:01:34.391Z,89.68
2023-08-07T01:02:06.751Z,90.33
2023-08-07T01:02:38.464Z,90.06
2023-08-07T01:03:13.435Z,89.85
2023-08-07T01:03:45.108Z,90.23
2023-08-07T01:04:16.760Z,90.12
2023-08-07T01:04:48.466Z,89.99
2023-08-07T01:05:20.527Z,89.23
2023-08-07T01:05:52.173Z,90.31
2023-08-07T01:06:23.811Z,90.15
2023-08-07T01:06:55.642Z,90.22
2023-08-07T01:07:27.416Z,89.85
2023-08-07T01:07:59.093Z,90.18
2023-08-07T01:08:31.153Z,90.35
2023-08-07T01:09:03.050Z,89.37
2023-08-07T01:09:34.940Z,89.58
2023-08-07T01:10:07.506Z,89.64
2023-08-07T01:11:07.460Z,89.62
2023-08-07T01:11:48.156Z,89.57
2023-08-07T01:12:23.851Z,89.75
2023-08-07T01:13:02.989Z,89.50
2023-08-07T01:13:58.131Z,89.59
2023-08-07T01:14:39.857Z,89.50
2023-08-07T01:15:16.865Z,89.73
2023-08-07T01:15:53.355Z,89.75
2023-08-07T01:16:42.507Z,89.20
2023-08-07T01:17:20.562Z,88.42
2023-08-07T01:17:54.341Z,88.47
2023-08-07T01:18:27.869Z,88.29
2023-08-07T01:19:02.123Z,88.80
2023-08-07T01:19:35.527Z,88.84
2023-08-07T01:20:08.117Z,88.65
2023-08-07T01:20:39.830Z,88.93
2023-08-07T01:21:21.037Z,88.99
2023-08-07T01:22:19.161Z,89.16
2023-08-07T01:22:50.794Z,89.05
2023-08-07T01:23:22.436Z,88.52
2023-08-07T01:23:54.077Z,88.19
2023-08-07T01:24:25.888Z,88.47
2023-08-07T01:24:57.610Z,89.02
2023-08-07T01:25:30.356Z,88.74
2023-08-07T01:26:01.987Z,88.39
2023-08-07T01:26:36.548Z,88.39
2023-08-07T01:27:20.425Z,88.61
2023-08-07T01:28:08.283Z,88.66
2023-08-07T01:28:44.791Z,88.43
2023-08-07T01:29:25.399Z,88.64
2023-08-07T01:30:27.380Z,89.05
2023-08-07T01:31:04.122Z,88.66
2023-08-07T01:31:38.975Z,88.74
2023-08-07T01:32:15.148Z,88.77
2023-08-07T01:33:05.754Z,88.00
2023-08-07T01:33:49.318Z,88.41
2023-08-07T01:34:22.699Z,89.01
2023-08-07T01:34:56.953Z,88.79
2023-08-07T01:35:35.868Z,88.52
2023-08-07T01:36:10.067Z,88.56
2023-08-07T01:36:42.162Z,87.92
2023-08-07T01:37:15.085Z,88.64
2023-08-07T01:37:48.442Z,88.36
2023-08-07T01:38:23.387Z,88.35
2023-08-07T01:38:57.032Z,88.41
2023-08-07T01:39:29.235Z,88.95
2023-08-07T01:40:05.220Z,88.98
2023-08-07T01:40:39.068Z,88.79
2023-08-07T01:41:10.807Z,88.03
2023-08-07T01:41:42.718Z,87.91
2023-08-07T01:42:14.378Z,88.08
2023-08-07T01:42:46.617Z,87.98
2023-08-07T01:43:20.195Z,88.00
2023-08-07T01:43:51.890Z,88.18
2023-08-07T01:44:23.601Z,87.59
2023-08-07T01:44:55.206Z,87.38
2023-08-07T01:45:28.775Z,87.38
2023-08-07T01:46:01.029Z,87.22
2023-08-07T01:46:32.852Z,87.77
2023-08-07T01:47:04.901Z,87.44
2023-08-07T01:47:36.694Z,87.50
2023-08-07T01:48:08.431Z,87.26
2023-08-07T01:48:40.095Z,87.24
2023-08-07T01:49:11.785Z,87.47
2023-08-07T01:49:43.853Z,87.50
2023-08-07T01:50:15.587Z,87.08
2023-08-07T01:50:48.361Z,87.71
2023-08-07T01:51:20.048Z,87.38
2023-08-07T01:51:51.698Z,87.78
2023-08-07T01:52:23.516Z,87.58
2023-08-07T01:52:55.160Z,87.48
2023-08-07T01:53:26.806Z,87.42
2023-08-07T01:53:58.471Z,87.25
2023-08-07T01:54:30.129Z,87.20
2023-08-07T01:55:01.782Z,87.52
2023-08-07T01:55:33.442Z,87.08
2023-08-07T01:56:05.306Z,86.83
2023-08-07T01:56:36.913Z,86.86
2023-08-07T01:57:08.575Z,87.63
2023-08-07T01:57:40.219Z,87.47
2023-08-07T01:58:11.880Z,87.37
2023-08-07T01:58:43.486Z,87.55
2023-08-07T01:59:15.077Z,87.34
2023-08-07T01:59:47.033Z,87.28
2023-08-07T02:00:19.060Z,87.40
2023-08-07T02:00:51.051Z,87.13
2023-08-07T02:01:22.768Z,87.22
2023-08-07T02:01:54.465Z,87.01
2023-08-07T02:02:26.132Z,87.19
2023-08-07T02:02:57.846Z,87.65
2023-08-07T02:03:29.672Z,86.98
2023-08-07T02:04:01.343Z,86.99
2023-08-07T02:04:32.971Z,87.26
2023-08-07T02:05:05.333Z,87.19
2023-08-07T02:05:36.958Z,87.05
2023-08-07T02:06:08.702Z,87.22
2023-08-07T02:06:40.353Z,86.89
2023-08-07T02:07:12.058Z,86.32
2023-08-07T02:07:44.385Z,86.80
2023-08-07T02:08:16.020Z,87.04
2023-08-07T02:08:47.624Z,86.63
2023-08-07T02:09:19.270Z,86.87
2023-08-07T02:09:50.913Z,87.03
2023-08-07T02:10:23.603Z,86.63
2023-08-07T02:10:55.276Z,86.47
2023-08-07T02:11:26.892Z,86.75
2023-08-07T02:11:58.556Z,87.00
2023-08-07T02:12:33.245Z,86.91
2023-08-07T02:13:05.104Z,86.93
2023-08-07T02:13:36.720Z,86.73
2023-08-07T02:14:08.324Z,86.48
2023-08-07T02:14:39.958Z,86.80
2023-08-07T02:15:11.595Z,87.22
2023-08-07T02:15:43.220Z,87.35
2023-08-07T02:16:14.953Z,87.27
2023-08-07T02:16:46.749Z,86.52
2023-08-07T02:17:18.598Z,86.20
2023-08-07T02:17:50.250Z,85.98
2023-08-07T02:18:21.919Z,85.80
2023-08-07T02:18:53.546Z,86.39
2023-08-07T02:19:25.186Z,86.48
2023-08-07T02:19:57.341Z,86.52
2023-08-07T02:20:29.096Z,86.66
2023-08-07T02:21:00.779Z,86.31
2023-08-07T02:21:33.455Z,86.31
2023-08-07T02:22:05.384Z,86.21
2023-08-07T02:22:37.142Z,86.97
2023-08-07T02:23:08.752Z,86.18
2023-08-07T02:23:40.443Z,86.64
2023-08-07T02:24:12.063Z,86.42
2023-08-07T02:24:43.820Z,86.31
2023-08-07T02:25:15.504Z,86.33
2023-08-07T02:25:47.360Z,86.73
2023-08-07T02:26:18.980Z,86.79
2023-08-07T02:26:50.594Z,86.59
2023-08-07T02:27:22.238Z,86.68
2023-08-07T02:27:53.949Z,86.88
2023-08-07T02:28:25.653Z,86.66
2023-08-07T02:28:57.318Z,87.09
2023-08-07T02:29:28.952Z,87.66
2023-08-07T02:30:00.597Z,87.77
2023-08-07T02:30:32.586Z,88.03
2023-08-07T02:31:04.240Z,87.05
2023-08-07T02:31:35.969Z,87.05
2023-08-07T02:32:07.934Z,86.99
2023-08-07T02:32:39.680Z,87.85
2023-08-07T02:33:11.376Z,87.69
2023-08-07T02:33:43.034Z,87.53
2023-08-07T02:34:14.736Z,87.17
2023-08-07T02:34:47.108Z,87.26
2023-08-07T02:35:18.771Z,87.42
2023-08-07T02:35:52.187Z,87.38
2023-08-07T02:36:23.962Z,87.49
2023-08-07T02:36:55.729Z,87.41
2023-08-07T02:37:27.530Z,87.68
2023-08-07T02:37:59.139Z,87.80
2023-08-07T02:38:30.771Z,87.81
2023-08-07T02:39:02.483Z,87.81
2023-08-07T02:39:34.195Z,87.80
2023-08-07T02:40:06.322Z,87.88
2023-08-07T02:40:38.739Z,87.74
2023-08-07T02:41:10.354Z,87.89
2023-08-07T02:41:41.947Z,88.58
2023-08-07T02:42:13.636Z,88.24
2023-08-07T02:42:45.240Z,88.88
2023-08-07T02:43:16.848Z,87.43
2023-08-07T02:43:48.516Z,87.45
2023-08-07T02:44:21.207Z,87.36
2023-08-07T02:44:52.902Z,87.74
2023-08-07T02:45:24.584Z,87.51
2023-08-07T02:45:56.285Z,87.76
2023-08-07T02:46:28.081Z,87.76
2023-08-07T02:46:59.687Z,87.58
2023-08-07T02:47:31.335Z,87.54
2023-08-07T02:48:03.274Z,88.28
2023-08-07T02:48:34.924Z,87.87
2023-08-07T02:49:06.693Z,87.40
2023-08-07T02:49:38.345Z,87.64
2023-08-07T02:50:10.338Z,87.60
2023-08-07T02:50:42.015Z,88.01
2023-08-07T02:51:13.642Z,88.50
2023-08-07T02:51:45.333Z,88.61
2023-08-07T02:52:16.972Z,88.46
2023-08-07T02:52:48.571Z,88.31
2023-08-07T02:53:20.170Z,88.12
2023-08-07T02:53:51.792Z,87.86
2023-08-07T02:54:23.478Z,87.99
2023-08-07T02:54:55.133Z,88.39
2023-08-07T02:55:26.763Z,87.84
2023-08-07T02:55:58.426Z,87.58
2023-08-07T02:56:30.168Z,87.98
2023-08-07T02:57:01.820Z,87.94
2023-08-07T02:57:33.449Z,88.73
2023-08-07T02:58:05.087Z,88.51
2023-08-07T02:58:36.726Z,88.50
2023-08-07T02:59:08.488Z,88.24
2023-08-07T02:59:40.122Z,88.16
2023-08-07T03:00:12.670Z,88.43
2023-08-07T03:00:44.797Z,87.77
2023-08-07T03:01:17.066Z,88.25
2023-08-07T03:01:48.813Z,88.09
2023-08-07T03:02:20.601Z,87.77
2023-08-07T03:02:52.318Z,88.30
2023-08-07T03:03:23.990Z,88.14
2023-08-07T03:03:55.636Z,87.74
2023-08-07T03:04:27.298Z,87.93
2023-08-07T03:04:58.986Z,87.87
2023-08-07T03:05:30.700Z,87.57
2023-08-07T03:06:02.887Z,87.57
2023-08-07T03:06:34.515Z,87.76
2023-08-07T03:07:06.211Z,87.86
2023-08-07T03:07:38.266Z,87.75
2023-08-07T03:08:09.923Z,88.00
2023-08-07T03:08:41.640Z,88.12
2023-08-07T03:09:13.312Z,87.84
2023-08-07T03:09:50.837Z,87.82
2023-08-07T03:10:24.057Z,87.73
2023-08-07T03:10:58.806Z,88.05
2023-08-07T03:11:30.529Z,88.18
2023-08-07T03:12:04.667Z,88.32
2023-08-07T03:12:38.647Z,88.16
2023-08-07T03:13:10.338Z,87.92
2023-08-07T03:13:43.284Z,88.13
2023-08-07T03:14:14.919Z,88.07
2023-08-07T03:14:46.523Z,88.30
2023-08-07T03:15:18.387Z,88.88
2023-08-07T03:15:51.619Z,88.32
2023-08-07T03:16:23.342Z,88.59
2023-08-07T03:16:55.224Z,88.10
2023-08-07T03:17:27.418Z,88.19
2023-08-07T03:17:59.141Z,88.31
2023-08-07T03:18:31.146Z,88.18
2023-08-07T03:19:04.874Z,88.50
2023-08-07T03:19:36.591Z,88.50
2023-08-07T03:20:08.770Z,88.86
2023-08-07T03:20:40.447Z,88.85
2023-08-07T03:21:12.114Z,88.74
2023-08-07T03:21:43.764Z,88.40
2023-08-07T03:22:15.415Z,88.91
2023-08-07T03:22:47.029Z,89.11
2023-08-07T03:23:18.740Z,88.90
2023-08-07T03:23:50.354Z,88.63
2023-08-07T03:24:22.027Z,88.27
2023-08-07T03:24:53.886Z,88.72
2023-08-07T03:25:25.500Z,88.23
2023-08-07T03:26:48.500Z,88.36
2023-08-07T03:27:20.283Z,87.80
2023-08-07T03:27:51.953Z,88.20
2023-08-07T03:28:23.587Z,88.16
2023-08-07T03:28:55.327Z,88.31
2023-08-07T03:29:26.995Z,88.23
2023-08-07T03:29:58.602Z,87.85
2023-08-07T03:30:30.233Z,87.47
2023-08-07T03:31:02.278Z,87.19
2023-08-07T03:31:33.993Z,87.67
2023-08-07T03:32:05.780Z,87.32
2023-08-07T03:32:37.534Z,87.71
2023-08-07T03:33:09.258Z,87.32
2023-08-07T03:33:40.929Z,87.43
2023-08-07T03:34:12.566Z,87.75
2023-08-07T03:34:44.224Z,87.50
2023-08-07T03:35:15.863Z,87.62
2023-08-07T03:35:47.642Z,87.03
2023-08-07T03:36:19.269Z,87.90
2023-08-07T03:36:50.911Z,87.97
2023-08-07T03:37:22.547Z,88.36
2023-08-07T03:37:54.199Z,88.06
2023-08-07T03:38:26.796Z,88.14
2023-08-07T03:38:58.395Z,87.91
2023-08-07T03:39:30.048Z,88.01
2023-08-07T03:40:01.715Z,88.19
2023-08-07T03:40:34.178Z,87.98
2023-08-07T03:41:05.808Z,88.28
2023-08-07T03:41:37.451Z,87.97
2023-08-07T03:42:09.137Z,88.18
2023-08-07T03:42:40.828Z,88.16
2023-08-07T03:43:12.474Z,88.31
2023-08-07T03:43:44.107Z,87.97
2023-08-07T03:44:15.752Z,88.77
2023-08-07T03:44:47.364Z,88.49
2023-08-07T03:45:19.041Z,88.38
2023-08-07T03:46:01.212Z,88.10
2023-08-07T03:46:34.538Z,87.59
2023-08-07T03:47:06.381Z,87.79
2023-08-07T03:47:38.049Z,87.65
2023-08-07T03:48:09.849Z,87.40
2023-08-07T03:48:41.489Z,88.12
2023-08-07T03:49:13.151Z,88.25
2023-08-07T03:49:44.809Z,88.75
2023-08-07T03:50:16.543Z,88.66
2023-08-07T03:50:48.367Z,87.97
2023-08-07T03:51:20.060Z,88.14
2023-08-07T03:51:51.786Z,88.47
2023-08-07T03:52:23.476Z,87.87
2023-08-07T03:52:55.117Z,88.29
2023-08-07T03:53:26.745Z,88.22
2023-08-07T03:53:58.348Z,88.60
2023-08-07T03:54:30.008Z,87.94
2023-08-07T03:55:01.639Z,87.58
2023-08-07T03:55:33.298Z,87.74
2023-08-07T03:56:05.141Z,87.46
2023-08-07T03:56:39.394Z,87.74
2023-08-07T03:57:12.026Z,87.71
2023-08-07T03:57:43.673Z,87.78
2023-08-07T03:58:15.300Z,87.87
2023-08-07T03:58:46.900Z,87.95
2023-08-07T03:59:18.739Z,87.77
2023-08-07T03:59:50.387Z,87.55
2023-08-07T04:00:22.051Z,88.31
2023-08-07T04:00:53.719Z,88.49
2023-08-07T04:01:25.503Z,88.57
2023-08-07T04:01:57.180Z,88.87
2023-08-07T04:02:30.423Z,88.69
2023-08-07T04:03:02.278Z,88.57
2023-08-07T04:03:34.034Z,88.44
2023-08-07T04:04:05.839Z,88.64
2023-08-07T04:04:37.527Z,88.68
2023-08-07T04:05:09.326Z,88.40
2023-08-07T04:05:40.997Z,87.90
2023-08-07T04:06:16.846Z,88.00
2023-08-07T04:06:48.540Z,88.01
2023-08-07T04:07:20.174Z,88.00
2023-08-07T04:07:51.778Z,87.95
2023-08-07T04:08:23.761Z,88.27
2023-08-07T04:08:55.474Z,87.82
2023-08-07T04:09:27.237Z,87.98
2023-08-07T04:09:58.860Z,87.68
2023-08-07T04:10:30.486Z,87.49
2023-08-07T04:11:04.005Z,87.33
2023-08-07T04:11:35.868Z,87.61
2023-08-07T04:12:08.272Z,87.97
2023-08-07T04:12:39.897Z,87.78
2023-08-07T04:13:11.538Z,87.00
2023-08-07T04:13:43.169Z,88.09
2023-08-07T04:14:14.815Z,87.50
2023-08-07T04:14:46.532Z,87.55
2023-08-07T04:15:18.169Z,87.01
2023-08-07T04:15:50.321Z,86.76
2023-08-07T04:16:23.023Z,86.77
2023-08-07T04:16:55.082Z,87.16
2023-08-07T04:17:27.702Z,87.07
2023-08-07T04:17:59.377Z,87.01
2023-08-07T04:18:34.810Z,86.77
2023-08-07T04:19:08.541Z,86.96
2023-08-07T04:19:40.209Z,86.97
2023-08-07T04:20:11.881Z,86.94
2023-08-07T04:20:43.506Z,87.20
2023-08-07T04:21:15.109Z,86.72
2023-08-07T04:21:46.728Z,86.47
2023-08-07T04:22:18.407Z,86.11
2023-08-07T04:22:50.032Z,86.40
2023-08-07T04:23:22.636Z,86.62
2023-08-07T04:23:54.386Z,86.38
2023-08-07T04:24:26.061Z,86.50
2023-08-07T04:24:57.696Z,86.08
2023-08-07T04:25:29.804Z,86.11
2023-08-07T04:26:01.719Z,86.03
2023-08-07T04:26:33.381Z,86.44
2023-08-07T04:27:05.361Z,86.13
2023-08-07T04:27:37.004Z,86.24
2023-08-07T04:28:08.650Z,86.28
2023-08-07T04:28:40.313Z,86.21
2023-08-07T04:29:11.935Z,85.88
2023-08-07T04:29:43.682Z,85.92
2023-08-07T04:30:15.412Z,85.63
2023-08-07T04:30:51.329Z,85.99
2023-08-07T04:31:23.977Z,86.74
2023-08-07T04:31:55.697Z,86.01
2023-08-07T04:32:27.422Z,86.25
2023-08-07T04:32:59.098Z,86.29
2023-08-07T04:33:30.831Z,85.78
2023-08-07T04:34:02.447Z,86.96
2023-08-07T04:34:34.072Z,86.49
2023-08-07T04:35:06.295Z,85.63
2023-08-07T04:35:38.170Z,85.39
2023-08-07T04:36:09.941Z,85.44
2023-08-07T04:36:41.574Z,85.52
2023-08-07T04:37:13.229Z,85.71
2023-08-07T04:37:44.886Z,85.53
2023-08-07T04:38:17.612Z,85.24
2023-08-07T04:38:49.250Z,85.42
2023-08-07T04:39:22.272Z,85.54
2023-08-07T04:39:55.640Z,86.05
2023-08-07T04:40:27.269Z,85.75
2023-08-07T04:40:58.922Z,84.66
2023-08-07T04:41:30.554Z,85.48
2023-08-07T04:42:02.152Z,86.07
2023-08-07T04:42:33.832Z,85.80
2023-08-07T04:43:05.438Z,85.68
2023-08-07T04:43:37.029Z,85.75
2023-08-07T04:44:08.670Z,85.95
2023-08-07T04:44:40.279Z,85.84
2023-08-07T04:45:11.910Z,85.96
2023-08-07T04:45:46.266Z,85.92
2023-08-07T04:46:18.422Z,85.15
2023-08-07T04:46:50.116Z,85.08
2023-08-07T04:47:21.805Z,85.10
2023-08-07T04:47:53.664Z,84.59
2023-08-07T04:48:26.653Z,85.25
2023-08-07T04:48:58.369Z,85.71
2023-08-07T04:49:30.009Z,85.93
2023-08-07T04:50:01.613Z,86.52
2023-08-07T04:50:33.247Z,86.13
2023-08-07T04:51:04.899Z,85.96
2023-08-07T04:51:37.295Z,86.59
2023-08-07T04:52:20.620Z,85.59
2023-08-07T04:52:57.514Z,85.03
2023-08-07T04:53:29.220Z,85.34
2023-08-07T04:54:00.871Z,85.24
2023-08-07T04:54:32.472Z,86.24
2023-08-07T04:55:04.296Z,85.66
2023-08-07T04:55:36.033Z,85.87
2023-08-07T04:56:07.848Z,86.16
2023-08-07T04:56:39.541Z,86.10
2023-08-07T04:57:11.156Z,85.89
2023-08-07T04:57:42.871Z,85.51
2023-08-07T04:58:14.491Z,85.06
2023-08-07T04:58:46.137Z,85.44
2023-08-07T04:59:17.743Z,85.66
2023-08-07T04:59:49.329Z,85.72
2023-08-07T05:00:22.405Z,85.29
2023-08-07T05:00:58.229Z,84.99
2023-08-07T05:01:29.948Z,85.07
2023-08-07T05:02:01.646Z,85.46
2023-08-07T05:02:33.412Z,85.02
2023-08-07T05:03:05.538Z,85.53
2023-08-07T05:03:37.412Z,85.67
2023-08-07T05:04:09.174Z,85.45
2023-08-07T05:04:41.130Z,85.11
2023-08-07T05:05:12.729Z,85.08
2023-08-07T05:05:44.391Z,84.71
2023-08-07T05:06:16.051Z,84.84
2023-08-07T05:06:47.708Z,85.64
2023-08-07T05:07:19.360Z,85.41
2023-08-07T05:07:51.013Z,85.33
2023-08-07T05:08:22.688Z,85.07
2023-08-07T05:08:54.335Z,85.77
2023-08-07T05:09:26.016Z,85.78
2023-08-07T05:09:57.615Z,85.39
2023-08-07T05:10:29.471Z,85.43
2023-08-07T05:11:01.120Z,85.52
2023-08-07T05:11:32.802Z,85.22
2023-08-07T05:12:04.896Z,85.12
2023-08-07T05:12:36.954Z,85.60
2023-08-07T05:13:08.608Z,84.79
2023-08-07T05:13:40.378Z,84.73
2023-08-07T05:14:11.975Z,84.61
2023-08-07T05:14:43.744Z,85.18
2023-08-07T05:15:15.563Z,85.66
2023-08-07T05:15:50.789Z,85.23
2023-08-07T05:16:23.017Z,84.78
2023-08-07T05:16:54.682Z,85.07
2023-08-07T05:17:26.430Z,85.17
2023-08-07T05:17:58.327Z,86.10
2023-08-07T05:18:30.046Z,85.84
2023-08-07T05:19:01.684Z,85.85
2023-08-07T05:19:33.337Z,84.88
2023-08-07T05:20:06.620Z,85.16
2023-08-07T05:20:38.258Z,85.22
2023-08-07T05:21:10.207Z,85.52
2023-08-07T05:21:41.872Z,84.82
2023-08-07T05:22:13.495Z,84.92
2023-08-07T05:22:45.322Z,85.18
2023-08-07T05:23:16.995Z,85.17
2023-08-07T05:23:48.967Z,85.28
2023-08-07T05:24:20.664Z,84.98
2023-08-07T05:24:52.311Z,85.33
2023-08-07T05:25:23.976Z,85.20
2023-08-07T05:25:55.627Z,85.39
2023-08-07T05:26:27.288Z,85.48
2023-08-07T05:26:58.902Z,85.13
2023-08-07T05:27:30.529Z,85.73
2023-08-07T05:28:02.192Z,85.12
2023-08-07T05:28:33.870Z,84.55
2023-08-07T05:29:05.568Z,83.50
2023-08-07T05:29:44.757Z,83.44
2023-08-07T05:30:16.787Z,84.25
2023-08-07T05:30:48.472Z,84.60
2023-08-07T05:31:20.151Z,84.38
2023-08-07T05:31:51.806Z,84.03
2023-08-07T05:32:23.470Z,83.83
2023-08-07T05:32:55.373Z,83.92
2023-08-07T05:33:27.036Z,84.66
2023-08-07T05:33:58.676Z,83.71
2023-08-07T05:34:30.281Z,84.26
2023-08-07T05:35:02.083Z,84.70
2023-08-07T05:35:33.731Z,84.95
2023-08-07T05:36:07.315Z,84.39
2023-08-07T05:36:40.407Z,84.40
2023-08-07T05:37:12.015Z,84.50
2023-08-07T05:37:43.657Z,84.40
2023-08-07T05:38:15.320Z,84.66
2023-08-07T05:38:46.942Z,84.81
2023-08-07T05:39:18.618Z,84.51
2023-08-07T05:39:50.276Z,84.62
2023-08-07T05:40:21.927Z,83.76
2023-08-07T05:40:53.605Z,84.26
2023-08-07T05:41:25.255Z,84.11
2023-08-07T05:41:58.814Z,84.30
2023-08-07T05:42:30.493Z,84.25
2023-08-07T05:43:02.132Z,85.04
2023-08-07T05:43:33.815Z,84.11
2023-08-07T05:44:06.638Z,84.23
2023-08-07T05:44:38.316Z,84.44
2023-08-07T05:45:11.859Z,84.07
2023-08-07T05:45:44.535Z,84.14
2023-08-07T05:46:16.273Z,84.14
2023-08-07T05:46:48.015Z,83.93
2023-08-07T05:47:20.075Z,83.87
2023-08-07T05:47:51.779Z,84.84
2023-08-07T05:48:23.499Z,84.37
2023-08-07T05:48:55.097Z,84.84
2023-08-07T05:49:26.956Z,84.68
2023-08-07T05:49:58.712Z,84.26
2023-08-07T05:50:30.384Z,83.55
2023-08-07T05:51:02.128Z,83.19
2023-08-07T05:51:33.766Z,83.03
2023-08-07T05:52:05.963Z,83.56
2023-08-07T05:52:37.640Z,83.61
2023-08-07T05:53:09.288Z,83.53
2023-08-07T05:53:40.911Z,83.86
2023-08-07T05:54:12.546Z,83.95
2023-08-07T05:54:44.293Z,84.42
2023-08-07T05:55:16.052Z,83.97
2023-08-07T05:55:47.806Z,83.37
2023-08-07T05:56:19.777Z,83.65
2023-08-07T05:56:51.429Z,83.20
2023-08-07T05:57:23.102Z,82.98
2023-08-07T05:57:54.721Z,83.12
2023-08-07T05:58:26.349Z,82.97
2023-08-07T05:58:57.958Z,82.82
2023-08-07T05:59:29.972Z,83.30
2023-08-07T06:00:01.697Z,83.32
2023-08-07T06:00:33.418Z,82.77
2023-08-07T06:01:05.069Z,82.37
2023-08-07T06:01:38.207Z,81.49
2023-08-07T06:02:12.159Z,82.05
2023-08-07T06:02:44.110Z,82.04
2023-08-07T06:03:15.744Z,81.24
2023-08-07T06:03:47.720Z,82.04
2023-08-07T06:04:19.573Z,81.04
2023-08-07T06:04:51.294Z,80.27
2023-08-07T06:05:23.073Z,80.27
2023-08-07T06:05:54.827Z,79.79
2023-08-07T06:06:29.066Z,80.55
2023-08-07T06:07:00.726Z,80.88
2023-08-07T06:07:32.337Z,80.97
2023-08-07T06:08:04.003Z,80.07
2023-08-07T06:08:35.602Z,79.74
2023-08-07T06:09:07.773Z,80.65
2023-08-07T06:09:39.460Z,79.76
2023-08-07T06:10:11.100Z,79.50
2023-08-07T06:10:42.742Z,78.82
2023-08-07T06:11:14.378Z,79.57
2023-08-07T06:11:46.112Z,79.17
2023-08-07T06:12:17.883Z,78.29
2023-08-07T06:12:49.504Z,79.20
2023-08-07T06:13:34.386Z,78.41
2023-08-07T06:14:07.485Z,78.17
2023-08-07T06:14:39.566Z,78.28
2023-08-07T06:15:11.348Z,78.56
2023-08-07T06:15:42.965Z,80.08
2023-08-07T06:16:14.642Z,79.96
2023-08-07T06:16:46.654Z,78.89
2023-08-07T06:17:18.373Z,78.88
2023-08-07T06:17:52.367Z,78.54
2023-08-07T06:18:24.019Z,78.51
2023-08-07T06:18:55.704Z,78.57
2023-08-07T06:19:32.662Z,79.14
2023-08-07T06:20:06.210Z,78.33
2023-08-07T06:20:37.868Z,77.83
2023-08-07T06:21:11.825Z,77.28
2023-08-07T06:21:43.484Z,77.31
2023-08-07T06:22:15.126Z,77.72
2023-08-07T06:22:46.802Z,77.36
2023-08-07T06:23:18.453Z,77.64
2023-08-07T06:23:50.147Z,77.49
2023-08-07T06:24:21.899Z,77.82
2023-08-07T06:24:53.634Z,77.44
2023-08-07T06:25:25.306Z,78.19
2023-08-07T06:25:59.806Z,78.27
2023-08-07T06:26:31.584Z,78.34
2023-08-07T06:27:04.350Z,77.28
2023-08-07T06:27:35.956Z,77.48
2023-08-07T06:28:07.566Z,77.38
2023-08-07T06:28:40.030Z,77.11
2023-08-07T06:29:11.702Z,77.56
2023-08-07T06:29:43.440Z,77.94
2023-08-07T06:30:15.329Z,78.33
2023-08-07T06:30:46.953Z,78.26
2023-08-07T06:31:19.185Z,78.45
2023-08-07T06:31:50.978Z,78.53
2023-08-07T06:32:22.713Z,77.61
2023-08-07T06:32:54.437Z,77.78
2023-08-07T06:33:26.116Z,78.43
2023-08-07T06:33:57.861Z,78.97
2023-08-07T06:34:29.754Z,79.67
2023-08-07T06:35:01.486Z,78.20
2023-08-07T06:35:38.861Z,79.29
2023-08-07T06:36:10.625Z,79.01
2023-08-07T06:36:42.445Z,78.38
2023-08-07T06:37:14.685Z,78.41
2023-08-07T06:37:46.374Z,79.49
2023-08-07T06:38:18.025Z,78.39
2023-08-07T06:38:49.701Z,79.11
2023-08-07T06:39:21.418Z,78.18
2023-08-07T06:39:53.133Z,78.08
2023-08-07T06:40:24.755Z,77.54
2023-08-07T06:40:56.522Z,77.88
2023-08-07T06:41:28.188Z,78.51
2023-08-07T06:42:01.313Z,79.23
2023-08-07T06:42:32.977Z,79.74
2023-08-07T06:43:04.667Z,79.28
2023-08-07T06:43:36.652Z,79.48
2023-08-07T06:44:08.278Z,78.84
2023-08-07T06:44:40.002Z,79.58
2023-08-07T06:45:11.612Z,80.28
2023-08-07T06:45:43.614Z,80.31
2023-08-07T06:46:15.317Z,79.79
2023-08-07T06:46:46.978Z,79.30
2023-08-07T06:47:18.595Z,79.02
2023-08-07T06:47:50.241Z,78.85
2023-08-07T06:48:22.306Z,78.50
2023-08-07T06:48:53.925Z,78.27
2023-08-07T06:49:25.625Z,78.01
2023-08-07T06:49:57.274Z,78.37
2023-08-07T06:50:28.900Z,77.85
2023-08-07T06:51:00.555Z,79.01
2023-08-07T06:51:32.151Z,79.07
2023-08-07T06:52:04.165Z,78.45
2023-08-07T06:52:35.952Z,78.72
2023-08-07T06:53:07.611Z,79.06
2023-08-07T06:53:39.340Z,78.20
2023-08-07T06:54:11.002Z,78.16
2023-08-07T06:54:42.654Z,78.77
2023-08-07T06:55:14.290Z,79.26
2023-08-07T06:55:46.083Z,78.62
2023-08-07T06:56:17.712Z,80.02
2023-08-07T06:56:49.317Z,79.67
2023-08-07T06:57:20.976Z,79.55
2023-08-07T06:57:52.603Z,79.39
2023-08-07T06:58:24.244Z,78.59